createdAt,value
2018-12-16T00:01:03.456Z,18.65
2018-12-16T00:02:08.121Z,18.80
2018-12-16T00:03:11.750Z,19.37
2018-12-16T00:04:15.462Z,18.77
2018-12-16T00:05:19.097Z,19.02
2018-12-16T00:06:22.746Z,19.65
2018-12-16T00:07:26.530Z,20.40
2018-12-16T00:08:30.245Z,19.73
2018-12-16T00:09:33.994Z,19.70
2018-12-16T00:10:37.708Z,19.42
2018-12-16T00:11:41.338Z,20.17
2018-12-16T00:12:45.101Z,19.30
2018-12-16T00:13:48.794Z,20.02
2018-12-16T00:14:52.440Z,20.10
2018-12-16T00:15:56.217Z,19.62
2018-12-16T00:16:59.835Z,20.32
2018-12-16T00:18:03.602Z,20.43
2018-12-16T00:19:07.307Z,18.95
2018-12-16T00:20:11.072Z,21.17
2018-12-16T00:21:14.707Z,20.68
2018-12-16T00:22:18.438Z,20.68
2018-12-16T00:23:22.029Z,19.73
2018-12-16T00:24:25.718Z,20.27
2018-12-16T00:25:29.519Z,21.45
2018-12-16T00:26:44.809Z,18.30
2018-12-16T00:27:48.450Z,19.35
2018-12-16T00:28:52.062Z,19.67
2018-12-16T00:29:55.684Z,19.62
2018-12-16T00:30:59.428Z,18.92
2018-12-16T00:32:03.255Z,20.77
2018-12-16T00:33:07.021Z,19.52
2018-12-16T00:34:10.646Z,19.95
2018-12-16T00:35:14.289Z,19.45
2018-12-16T00:36:17.942Z,19.70
2018-12-16T00:37:21.652Z,20.62
2018-12-16T00:38:25.273Z,19.70
2018-12-16T00:39:28.992Z,19.73
2018-12-16T00:40:32.685Z,20.57
2018-12-16T00:41:36.375Z,20.05
2018-12-16T00:42:40.067Z,19.65
2018-12-16T00:43:43.706Z,20.08
2018-12-16T00:44:47.346Z,21.33
2018-12-16T00:45:51.053Z,20.65
2018-12-16T00:46:54.681Z,19.30
2018-12-16T00:47:58.311Z,20.08
2018-12-16T00:49:02.018Z,20.50
2018-12-16T00:50:06.093Z,19.52
2018-12-16T00:51:09.722Z,19.95
2018-12-16T00:52:13.423Z,20.57
2018-12-16T00:53:17.077Z,19.48
2018-12-16T00:54:20.981Z,20.65
2018-12-16T00:55:24.776Z,20.88
2018-12-16T00:56:28.469Z,21.40
2018-12-16T00:57:32.099Z,20.95
2018-12-16T00:58:35.730Z,20.88
2018-12-16T00:59:39.369Z,21.42
2018-12-16T01:00:43.065Z,21.05
2018-12-16T01:01:46.786Z,20.90
2018-12-16T01:02:50.558Z,21.60
2018-12-16T01:03:54.281Z,21.52
2018-12-16T01:04:58.001Z,19.98
2018-12-16T01:06:01.717Z,20.05
2018-12-16T01:07:05.409Z,21.25
2018-12-16T01:08:09.102Z,21.52
2018-12-16T01:09:13.104Z,20.48
2018-12-16T01:10:16.889Z,21.20
2018-12-16T01:11:20.604Z,20.52
2018-12-16T01:12:24.392Z,20.92
2018-12-16T01:13:28.079Z,20.82
2018-12-16T01:14:31.733Z,21.02
2018-12-16T01:15:35.985Z,21.10
2018-12-16T01:16:39.685Z,21.07
2018-12-16T01:17:43.321Z,20.97
2018-12-16T01:18:47.029Z,20.32
2018-12-16T01:19:51.055Z,20.80
2018-12-16T01:20:54.729Z,21.73
2018-12-16T01:21:58.545Z,20.72
2018-12-16T01:23:02.241Z,21.97
2018-12-16T01:24:06.001Z,22.37
2018-12-16T01:25:09.765Z,21.33
2018-12-16T01:26:13.453Z,22.60
2018-12-16T01:27:17.366Z,22.22
2018-12-16T01:28:20.985Z,21.12
2018-12-16T01:29:24.597Z,21.77
2018-12-16T01:30:28.298Z,22.45
2018-12-16T01:31:31.983Z,21.62
2018-12-16T01:32:35.761Z,21.95
2018-12-16T01:33:39.374Z,21.45
2018-12-16T01:34:43.075Z,21.05
2018-12-16T01:35:46.771Z,21.27
2018-12-16T01:36:50.381Z,21.33
2018-12-16T01:37:53.996Z,22.32
2018-12-16T01:38:57.625Z,21.15
2018-12-16T01:40:01.421Z,22.35
2018-12-16T01:41:05.004Z,22.58
2018-12-16T01:42:08.710Z,21.45
2018-12-16T01:43:12.335Z,21.62
2018-12-16T01:44:16.025Z,22.10
2018-12-16T01:45:19.651Z,22.05
2018-12-16T01:46:23.277Z,21.87
2018-12-16T01:47:27.053Z,22.60
2018-12-16T01:48:30.669Z,21.70
2018-12-16T01:49:34.290Z,22.95
2018-12-16T01:50:37.961Z,22.93
2018-12-16T01:51:41.737Z,21.85
2018-12-16T01:52:50.219Z,22.82
2018-12-16T01:53:51.119Z,22.50
2018-12-16T01:54:54.817Z,22.27
2018-12-16T01:55:58.650Z,23.38
2018-12-16T01:57:02.265Z,20.75
2018-12-16T01:58:05.953Z,25.00
2018-12-16T01:59:09.582Z,24.00
2018-12-16T02:00:13.428Z,23.35
2018-12-16T02:01:17.136Z,23.07
2018-12-16T02:02:20.825Z,24.27
2018-12-16T02:03:24.512Z,24.82
2018-12-16T02:04:28.193Z,24.92
2018-12-16T02:05:32.225Z,24.27
2018-12-16T02:06:35.876Z,24.00
2018-12-16T02:07:39.577Z,24.45
2018-12-16T02:08:43.349Z,24.87
2018-12-16T02:09:47.100Z,24.52
2018-12-16T02:10:50.861Z,24.98
2018-12-16T02:11:54.620Z,25.60
2018-12-16T02:12:58.263Z,25.95
2018-12-16T02:14:02.097Z,23.30
2018-12-16T02:15:05.865Z,24.07
2018-12-16T02:16:09.513Z,24.57
2018-12-16T02:17:13.141Z,24.52
2018-12-16T02:18:16.896Z,24.65
2018-12-16T02:19:20.517Z,25.05
2018-12-16T02:20:24.128Z,25.23
2018-12-16T02:21:27.736Z,24.98
2018-12-16T02:22:31.359Z,25.12
2018-12-16T02:23:35.077Z,24.92
2018-12-16T02:24:38.790Z,24.32
2018-12-16T02:25:42.486Z,25.12
2018-12-16T02:26:46.179Z,24.02
2018-12-16T02:27:49.792Z,25.50
2018-12-16T02:28:53.501Z,24.95
2018-12-16T02:29:57.117Z,22.87
2018-12-16T02:31:00.806Z,24.82
2018-12-16T02:32:04.517Z,24.85
2018-12-16T02:33:08.307Z,25.10
2018-12-16T02:34:11.917Z,25.37
2018-12-16T02:35:15.597Z,25.45
2018-12-16T02:36:19.208Z,25.37
2018-12-16T02:37:22.880Z,24.23
2018-12-16T02:38:26.470Z,24.52
2018-12-16T02:39:30.214Z,24.30
2018-12-16T02:40:33.973Z,25.27
2018-12-16T02:41:37.725Z,24.65
2018-12-16T02:42:41.350Z,24.25
2018-12-16T02:43:45.134Z,25.23
2018-12-16T02:44:48.905Z,24.23
2018-12-16T02:45:52.536Z,24.20
2018-12-16T02:46:56.202Z,24.52
2018-12-16T02:47:59.997Z,23.77
2018-12-16T02:49:03.758Z,25.08
2018-12-16T02:50:07.906Z,24.45
2018-12-16T02:51:11.581Z,24.92
2018-12-16T02:52:15.193Z,24.23
2018-12-16T02:53:18.862Z,25.17
2018-12-16T02:54:22.513Z,25.72
2018-12-16T02:55:26.267Z,24.92
2018-12-16T02:56:29.962Z,24.75
2018-12-16T02:57:33.725Z,23.50
2018-12-16T02:58:37.335Z,26.87
2018-12-16T02:59:41.026Z,24.63
2018-12-16T03:00:44.798Z,24.43
2018-12-16T03:01:48.529Z,24.87
2018-12-16T03:02:52.195Z,22.65
2018-12-16T03:03:55.916Z,24.43
2018-12-16T03:04:59.506Z,23.95
2018-12-16T03:06:03.197Z,24.07
2018-12-16T03:07:06.899Z,23.47
2018-12-16T03:08:10.521Z,23.70
2018-12-16T03:09:14.190Z,24.23
2018-12-16T03:10:17.871Z,25.57
2018-12-16T03:11:21.633Z,25.65
2018-12-16T03:12:25.262Z,25.25
2018-12-16T03:13:28.954Z,25.30
2018-12-16T03:14:32.575Z,25.62
2018-12-16T03:15:36.330Z,26.15
2018-12-16T03:16:39.992Z,26.35
2018-12-16T03:17:43.679Z,24.15
2018-12-16T03:18:47.311Z,26.25
2018-12-16T03:19:50.929Z,26.23
2018-12-16T03:20:54.565Z,25.37
2018-12-16T03:21:58.286Z,27.05
2018-12-16T03:23:01.977Z,27.70
2018-12-16T03:24:05.606Z,25.23
2018-12-16T03:25:09.293Z,25.90
2018-12-16T03:26:12.951Z,26.30
2018-12-16T03:27:16.744Z,26.60
2018-12-16T03:28:20.341Z,26.20
2018-12-16T03:29:24.031Z,25.17
2018-12-16T03:30:27.732Z,25.50
2018-12-16T03:31:31.411Z,25.60
2018-12-16T03:32:35.235Z,26.00
2018-12-16T03:33:38.991Z,25.60
2018-12-16T03:34:42.612Z,25.62
2018-12-16T03:35:46.362Z,25.95
2018-12-16T03:36:50.046Z,27.10
2018-12-16T03:37:53.685Z,27.10
2018-12-16T03:38:57.369Z,26.55
2018-12-16T03:40:01.073Z,27.73
2018-12-16T03:41:04.711Z,27.85
2018-12-16T03:42:08.444Z,26.55
2018-12-16T03:43:12.138Z,26.05
2018-12-16T03:44:15.734Z,26.27
2018-12-16T03:45:19.493Z,27.17
2018-12-16T03:46:23.248Z,27.75
2018-12-16T03:47:26.933Z,28.57
2018-12-16T03:48:30.557Z,28.65
2018-12-16T03:49:34.230Z,26.00
2018-12-16T03:50:37.987Z,27.58
2018-12-16T03:51:41.660Z,28.02
2018-12-16T03:52:45.366Z,27.02
2018-12-16T03:53:49.063Z,26.73
2018-12-16T03:54:52.758Z,26.20
2018-12-16T03:55:56.450Z,28.60
2018-12-16T03:57:00.043Z,27.62
2018-12-16T03:58:03.879Z,26.48
2018-12-16T03:59:18.249Z,27.87
2018-12-16T04:00:21.932Z,27.27
2018-12-16T04:01:25.572Z,27.67
2018-12-16T04:02:29.253Z,27.37
2018-12-16T04:03:32.962Z,27.90
2018-12-16T04:04:36.654Z,27.35
2018-12-16T04:05:40.265Z,29.15
2018-12-16T04:06:43.944Z,27.42
2018-12-16T04:07:47.569Z,28.35
2018-12-16T04:08:51.267Z,28.07
2018-12-16T04:09:54.970Z,27.93
2018-12-16T04:10:58.592Z,29.70
2018-12-16T04:12:02.258Z,28.95
2018-12-16T04:13:05.953Z,28.85
2018-12-16T04:14:09.585Z,28.25
2018-12-16T04:15:13.262Z,29.07
2018-12-16T04:16:16.941Z,27.98
2018-12-16T04:17:20.689Z,28.27
2018-12-16T04:18:24.314Z,26.95
2018-12-16T04:19:28.229Z,28.23
2018-12-16T04:20:31.838Z,28.00
2018-12-16T04:21:35.530Z,27.25
2018-12-16T04:22:39.205Z,27.90
2018-12-16T04:23:42.893Z,28.75
2018-12-16T04:24:46.529Z,28.42
2018-12-16T04:25:50.293Z,28.27
2018-12-16T04:26:53.984Z,27.55
2018-12-16T04:27:57.625Z,25.57
2018-12-16T04:29:01.338Z,27.73
2018-12-16T04:30:05.937Z,27.85
2018-12-16T04:31:09.622Z,28.32
2018-12-16T04:32:13.238Z,28.07
2018-12-16T04:33:16.856Z,28.40
2018-12-16T04:34:20.550Z,28.98
2018-12-16T04:35:24.126Z,26.82
2018-12-16T04:36:27.741Z,28.07
2018-12-16T04:37:31.349Z,27.40
2018-12-16T04:38:35.037Z,27.15
2018-12-16T04:39:38.730Z,27.48
2018-12-16T04:40:42.337Z,24.70
2018-12-16T04:41:46.019Z,26.85
2018-12-16T04:42:49.696Z,28.65
2018-12-16T04:43:53.421Z,27.87
2018-12-16T04:44:57.081Z,27.67
2018-12-16T04:46:00.837Z,26.73
2018-12-16T04:47:04.555Z,27.50
2018-12-16T04:48:08.356Z,27.93
2018-12-16T04:49:11.958Z,27.52
2018-12-16T04:50:15.575Z,27.35
2018-12-16T04:51:19.202Z,26.85
2018-12-16T04:52:22.825Z,25.88
2018-12-16T04:53:26.521Z,27.73
2018-12-16T04:54:30.231Z,28.25
2018-12-16T04:55:33.853Z,27.17
2018-12-16T04:56:37.562Z,25.97
2018-12-16T04:57:41.282Z,27.42
2018-12-16T04:58:44.967Z,28.60
2018-12-16T04:59:48.769Z,27.35
2018-12-16T05:00:52.458Z,27.93
2018-12-16T05:01:56.125Z,26.73
2018-12-16T05:02:59.752Z,27.73
2018-12-16T05:04:03.457Z,27.60
2018-12-16T05:05:07.165Z,26.33
2018-12-16T05:06:10.792Z,24.77
2018-12-16T05:07:14.515Z,27.48
2018-12-16T05:08:18.285Z,26.30
2018-12-16T05:09:21.913Z,27.10
2018-12-16T05:10:28.836Z,27.77
2018-12-16T05:11:32.474Z,26.27
2018-12-16T05:12:36.088Z,26.27
2018-12-16T05:13:39.713Z,27.58
2018-12-16T05:14:44.460Z,27.22
2018-12-16T05:15:48.082Z,28.05
2018-12-16T05:16:51.712Z,26.77
2018-12-16T05:17:55.400Z,27.60
2018-12-16T05:18:59.205Z,27.55
2018-12-16T05:20:03.535Z,26.85
2018-12-16T05:21:07.333Z,28.10
2018-12-16T05:22:10.922Z,26.48
2018-12-16T05:23:14.553Z,28.17
2018-12-16T05:24:18.609Z,28.05
2018-12-16T05:25:22.309Z,26.93
2018-12-16T05:26:25.941Z,26.35
2018-12-16T05:27:29.566Z,27.25
2018-12-16T05:28:33.184Z,29.30
2018-12-16T05:29:36.828Z,27.32
2018-12-16T05:30:40.453Z,26.35
2018-12-16T05:31:44.081Z,27.80
2018-12-16T05:32:47.778Z,28.20
2018-12-16T05:33:51.542Z,26.73
2018-12-16T05:34:55.218Z,28.07
2018-12-16T05:35:59.246Z,27.70
2018-12-16T05:37:02.928Z,27.73
2018-12-16T05:38:06.537Z,27.90
2018-12-16T05:39:10.244Z,26.62
2018-12-16T05:40:14.031Z,28.75
2018-12-16T05:41:17.653Z,28.87
2018-12-16T05:42:21.374Z,26.62
2018-12-16T05:43:25.001Z,29.92
2018-12-16T05:44:28.720Z,27.62
2018-12-16T05:45:33.541Z,26.15
2018-12-16T05:46:37.288Z,27.27
2018-12-16T05:47:40.980Z,28.38
2018-12-16T05:48:44.674Z,28.25
2018-12-16T05:49:48.414Z,26.55
2018-12-16T05:50:52.146Z,28.17
2018-12-16T05:51:55.832Z,27.52
2018-12-16T05:52:59.462Z,26.15
2018-12-16T05:54:03.145Z,27.42
2018-12-16T05:55:06.908Z,27.30
2018-12-16T05:56:10.529Z,26.73
2018-12-16T05:57:14.217Z,27.17
2018-12-16T05:58:17.825Z,27.10
2018-12-16T05:59:21.451Z,28.23
2018-12-16T06:00:25.191Z,26.95
2018-12-16T06:01:28.885Z,28.20
2018-12-16T06:02:32.477Z,28.60
2018-12-16T06:03:36.133Z,28.98
2018-12-16T06:04:39.861Z,28.38
2018-12-16T06:05:43.477Z,29.23
2018-12-16T06:06:47.145Z,28.87
2018-12-16T06:07:50.813Z,28.50
2018-12-16T06:08:54.423Z,27.75
2018-12-16T06:09:58.108Z,28.45
2018-12-16T06:11:01.722Z,28.50
2018-12-16T06:12:05.504Z,27.93
2018-12-16T06:13:09.197Z,28.10
2018-12-16T06:14:12.767Z,27.80
2018-12-16T06:15:16.458Z,28.57
2018-12-16T06:16:20.098Z,28.07
2018-12-16T06:17:23.768Z,27.35
2018-12-16T06:18:27.446Z,26.30
2018-12-16T06:19:31.237Z,28.15
2018-12-16T06:20:34.982Z,28.35
2018-12-16T06:21:38.672Z,28.50
2018-12-16T06:22:42.340Z,26.82
2018-12-16T06:23:46.046Z,27.30
2018-12-16T06:24:49.658Z,26.93
2018-12-16T06:25:53.345Z,25.90
2018-12-16T06:26:56.962Z,28.80
2018-12-16T06:28:00.570Z,26.95
2018-12-16T06:29:04.305Z,26.93
2018-12-16T06:30:08.383Z,27.90
2018-12-16T06:31:12.180Z,27.90
2018-12-16T06:32:15.848Z,26.10
2018-12-16T06:33:19.469Z,27.25
2018-12-16T06:34:23.169Z,28.15
2018-12-16T06:35:26.859Z,27.27
2018-12-16T06:36:30.550Z,26.60
2018-12-16T06:37:34.167Z,27.55
2018-12-16T06:38:37.845Z,26.87
2018-12-16T06:39:41.469Z,29.50
2018-12-16T06:40:45.145Z,25.60
2018-12-16T06:41:48.817Z,26.02
2018-12-16T06:42:52.513Z,26.62
2018-12-16T06:43:56.141Z,28.10
2018-12-16T06:44:59.773Z,27.77
2018-12-16T06:46:03.481Z,26.25
2018-12-16T06:47:07.193Z,28.38
2018-12-16T06:48:10.957Z,27.07
2018-12-16T06:49:14.557Z,26.77
2018-12-16T06:50:18.546Z,27.48
2018-12-16T06:51:22.239Z,27.15
2018-12-16T06:52:25.824Z,28.38
2018-12-16T06:53:29.514Z,25.15
2018-12-16T06:54:33.225Z,28.20
2018-12-16T06:55:43.125Z,28.00
2018-12-16T06:56:42.589Z,28.38
2018-12-16T06:57:46.274Z,27.82
2018-12-16T06:58:50.014Z,27.87
2018-12-16T06:59:53.641Z,28.52
2018-12-16T07:00:57.521Z,29.18
2018-12-16T07:02:01.469Z,26.55
2018-12-16T07:03:05.190Z,27.85
2018-12-16T07:04:08.873Z,27.37
2018-12-16T07:05:12.502Z,27.25
2018-12-16T07:06:16.142Z,26.30
2018-12-16T07:07:19.779Z,27.02
2018-12-16T07:08:23.472Z,26.27
2018-12-16T07:09:27.163Z,28.65
2018-12-16T07:10:30.959Z,26.97
2018-12-16T07:11:34.741Z,26.77
2018-12-16T07:12:38.378Z,27.60
2018-12-16T07:13:42.112Z,27.87
2018-12-16T07:14:46.265Z,27.27
2018-12-16T07:15:49.899Z,27.02
2018-12-16T07:16:53.525Z,27.98
2018-12-16T07:17:57.196Z,26.97
2018-12-16T07:19:01.002Z,27.67
2018-12-16T07:20:05.322Z,26.50
2018-12-16T07:21:08.957Z,28.32
2018-12-16T07:22:12.585Z,27.40
2018-12-16T07:23:16.962Z,26.57
2018-12-16T07:24:20.684Z,28.38
2018-12-16T07:25:24.357Z,27.67
2018-12-16T07:26:27.981Z,28.00
2018-12-16T07:27:31.761Z,27.73
2018-12-16T07:28:35.390Z,28.50
2018-12-16T07:29:39.098Z,27.10
2018-12-16T07:30:42.936Z,28.02
2018-12-16T07:31:46.601Z,27.55
2018-12-16T07:32:50.316Z,26.97
2018-12-16T07:33:54.105Z,27.52
2018-12-16T07:34:57.842Z,26.70
2018-12-16T07:36:01.510Z,27.70
2018-12-16T07:37:05.393Z,26.62
2018-12-16T07:38:09.137Z,28.27
2018-12-16T07:39:12.834Z,28.27
2018-12-16T07:40:16.588Z,27.70
2018-12-16T07:41:20.244Z,26.87
2018-12-16T07:42:23.958Z,27.30
2018-12-16T07:43:27.708Z,27.75
2018-12-16T07:44:31.333Z,26.45
2018-12-16T07:45:34.969Z,27.60
2018-12-16T07:46:38.659Z,27.42
2018-12-16T07:47:42.384Z,26.75
2018-12-16T07:48:46.190Z,27.95
2018-12-16T07:49:50.005Z,29.15
2018-12-16T07:50:53.748Z,27.48
2018-12-16T07:51:57.404Z,26.87
2018-12-16T07:53:01.146Z,27.25
2018-12-16T07:54:04.902Z,28.15
2018-12-16T07:55:08.648Z,28.50
2018-12-16T07:56:12.275Z,26.93
2018-12-16T07:57:16.038Z,26.00
2018-12-16T07:58:19.764Z,28.77
2018-12-16T07:59:23.473Z,27.32
2018-12-16T08:00:27.441Z,28.77
2018-12-16T08:01:31.165Z,28.75
2018-12-16T08:02:34.963Z,26.95
2018-12-16T08:03:38.570Z,28.60
2018-12-16T08:04:42.204Z,29.42
2018-12-16T08:05:45.870Z,27.95
2018-12-16T08:06:49.529Z,28.62
2018-12-16T08:07:53.164Z,28.20
2018-12-16T08:08:56.773Z,28.05
2018-12-16T08:10:00.474Z,27.93
2018-12-16T08:11:04.153Z,26.20
2018-12-16T08:12:07.904Z,27.85
2018-12-16T08:13:11.699Z,27.58
2018-12-16T08:14:15.393Z,29.18
2018-12-16T08:15:19.060Z,27.42
2018-12-16T08:16:22.809Z,27.93
2018-12-16T08:17:26.491Z,27.77
2018-12-16T08:18:30.102Z,28.00
2018-12-16T08:19:40.421Z,29.60
2018-12-16T08:20:44.039Z,28.60
2018-12-16T08:21:47.839Z,27.42
2018-12-16T08:22:51.535Z,27.50
2018-12-16T08:23:55.180Z,28.92
2018-12-16T08:24:58.762Z,28.67
2018-12-16T08:26:02.445Z,29.27
2018-12-16T08:27:06.061Z,28.87
2018-12-16T08:28:09.750Z,26.70
2018-12-16T08:29:13.433Z,28.90
2018-12-16T08:30:17.132Z,28.90
2018-12-16T08:31:20.813Z,28.65
2018-12-16T08:32:24.497Z,28.73
2018-12-16T08:33:28.237Z,28.00
2018-12-16T08:34:31.845Z,28.83
2018-12-16T08:35:35.477Z,29.35
2018-12-16T08:36:39.169Z,30.10
2018-12-16T08:37:42.879Z,28.38
2018-12-16T08:38:46.533Z,26.62
2018-12-16T08:39:50.154Z,27.30
2018-12-16T08:40:53.761Z,26.93
2018-12-16T08:41:57.409Z,26.68
2018-12-16T08:43:01.092Z,28.83
2018-12-16T08:44:04.795Z,27.48
2018-12-16T08:45:08.545Z,26.87
2018-12-16T08:46:12.196Z,27.67
2018-12-16T08:47:15.813Z,27.10
2018-12-16T08:48:19.498Z,28.77
2018-12-16T08:49:23.169Z,27.90
2018-12-16T08:50:26.784Z,28.62
2018-12-16T08:51:30.395Z,26.82
2018-12-16T08:52:34.154Z,26.65
2018-12-16T08:53:37.863Z,26.82
2018-12-16T08:54:41.655Z,27.10
2018-12-16T08:55:45.229Z,28.07
2018-12-16T08:56:48.912Z,26.80
2018-12-16T08:57:52.547Z,26.70
2018-12-16T08:58:56.159Z,26.40
2018-12-16T08:59:59.838Z,26.35
2018-12-16T09:01:03.588Z,27.10
2018-12-16T09:02:07.252Z,26.57
2018-12-16T09:03:10.865Z,24.63
2018-12-16T09:04:14.654Z,26.85
2018-12-16T09:05:18.333Z,25.70
2018-12-16T09:06:22.953Z,25.20
2018-12-16T09:07:26.994Z,24.47
2018-12-16T09:08:30.645Z,24.60
2018-12-16T09:09:34.478Z,24.77
2018-12-16T09:10:38.154Z,26.05
2018-12-16T09:11:41.769Z,26.02
2018-12-16T09:12:45.534Z,26.60
2018-12-16T09:13:49.146Z,25.70
2018-12-16T09:14:52.842Z,24.65
2018-12-16T09:15:56.505Z,24.82
2018-12-16T09:17:00.185Z,25.40
2018-12-16T09:18:03.942Z,25.23
2018-12-16T09:19:07.548Z,25.65
2018-12-16T09:20:11.313Z,24.77
2018-12-16T09:21:14.999Z,24.67
2018-12-16T09:22:18.949Z,23.30
2018-12-16T09:23:22.571Z,24.77
2018-12-16T09:24:26.178Z,25.17
2018-12-16T09:25:29.852Z,22.62
2018-12-16T09:26:33.462Z,24.32
2018-12-16T09:27:37.236Z,24.02
2018-12-16T09:28:40.848Z,24.85
2018-12-16T09:29:44.450Z,24.23
2018-12-16T09:30:48.141Z,23.38
2018-12-16T09:31:51.812Z,24.57
2018-12-16T09:32:55.453Z,24.50
2018-12-16T09:33:59.129Z,22.85
2018-12-16T09:35:02.914Z,23.92
2018-12-16T09:36:06.577Z,23.02
2018-12-16T09:37:10.290Z,23.83
2018-12-16T09:38:13.894Z,24.82
2018-12-16T09:39:17.572Z,21.87
2018-12-16T09:40:21.266Z,23.45
2018-12-16T09:41:24.863Z,23.57
2018-12-16T09:42:28.649Z,23.07
2018-12-16T09:43:32.269Z,23.45
2018-12-16T09:44:36.039Z,22.02
2018-12-16T09:45:39.729Z,22.22
2018-12-16T09:46:43.314Z,22.67
2018-12-16T09:47:47.078Z,24.23
2018-12-16T09:48:50.720Z,22.60
2018-12-16T09:49:54.334Z,23.12
2018-12-16T09:50:58.080Z,23.60
2018-12-16T09:52:01.809Z,23.20
2018-12-16T09:53:05.679Z,23.70
2018-12-16T09:54:09.277Z,22.27
2018-12-16T09:55:13.045Z,23.00
2018-12-16T09:56:16.733Z,23.40
2018-12-16T09:57:20.422Z,21.65
2018-12-16T09:58:24.053Z,21.25
2018-12-16T09:59:27.668Z,22.25
2018-12-16T10:00:31.289Z,23.18
2018-12-16T10:01:34.976Z,22.82
2018-12-16T10:02:38.677Z,22.67
2018-12-16T10:03:42.384Z,22.55
2018-12-16T10:04:46.085Z,21.35
2018-12-16T10:05:49.769Z,23.32
2018-12-16T10:06:53.395Z,21.68
2018-12-16T10:07:57.160Z,21.73
2018-12-16T10:09:00.875Z,20.88
2018-12-16T10:10:06.742Z,21.82
2018-12-16T10:11:11.061Z,22.22
2018-12-16T10:12:14.719Z,21.90
2018-12-16T10:13:18.443Z,22.15
2018-12-16T10:14:22.150Z,22.30
2018-12-16T10:15:25.781Z,22.35
2018-12-16T10:16:29.548Z,21.93
2018-12-16T10:17:33.377Z,21.65
2018-12-16T10:18:37.042Z,21.48
2018-12-16T10:19:40.753Z,21.10
2018-12-16T10:20:44.457Z,22.42
2018-12-16T10:21:48.125Z,21.52
2018-12-16T10:22:51.842Z,21.15
2018-12-16T10:23:55.669Z,22.58
2018-12-16T10:24:59.313Z,22.15
2018-12-16T10:26:03.109Z,22.37
2018-12-16T10:27:06.849Z,21.60
2018-12-16T10:28:10.478Z,22.67
2018-12-16T10:29:14.105Z,20.62
2018-12-16T10:30:17.733Z,21.55
2018-12-16T10:31:21.358Z,21.37
2018-12-16T10:32:25.076Z,22.25
2018-12-16T10:33:28.773Z,21.80
2018-12-16T10:34:32.394Z,21.52
2018-12-16T10:35:36.017Z,21.02
2018-12-16T10:36:39.719Z,22.27
2018-12-16T10:37:43.422Z,21.60
2018-12-16T10:38:47.077Z,20.50
2018-12-16T10:39:50.717Z,21.80
2018-12-16T10:40:54.416Z,22.07
2018-12-16T10:41:58.042Z,21.60
2018-12-16T10:43:01.765Z,20.88
2018-12-16T10:44:05.480Z,21.35
2018-12-16T10:45:09.400Z,20.02
2018-12-16T10:46:12.983Z,21.52
2018-12-16T10:47:16.681Z,22.05
2018-12-16T10:48:20.322Z,20.65
2018-12-16T10:49:23.945Z,20.57
2018-12-16T10:50:27.564Z,20.65
2018-12-16T10:51:31.240Z,22.00
2018-12-16T10:52:34.929Z,20.45
2018-12-16T10:53:38.624Z,20.50
2018-12-16T10:54:42.240Z,21.12
2018-12-16T10:55:45.865Z,20.40
2018-12-16T10:56:49.482Z,20.50
2018-12-16T10:57:53.176Z,20.88
2018-12-16T10:58:56.797Z,20.17
2018-12-16T11:00:00.562Z,20.92
2018-12-16T11:01:09.521Z,20.10
2018-12-16T11:02:13.204Z,20.05
2018-12-16T11:03:16.846Z,21.27
2018-12-16T11:04:20.594Z,20.92
2018-12-16T11:05:25.026Z,20.80
2018-12-16T11:06:28.783Z,20.72
2018-12-16T11:07:32.578Z,20.68
2018-12-16T11:08:36.671Z,20.15
2018-12-16T11:09:40.328Z,20.52
2018-12-16T11:10:43.957Z,20.32
2018-12-16T11:11:47.637Z,20.77
2018-12-16T11:12:51.425Z,21.20
2018-12-16T11:13:55.052Z,20.23
2018-12-16T11:14:58.742Z,20.72
2018-12-16T11:16:02.378Z,21.37
2018-12-16T11:17:06.090Z,20.10
2018-12-16T11:18:09.793Z,20.50
2018-12-16T11:19:13.598Z,21.57
2018-12-16T11:20:17.262Z,21.17
2018-12-16T11:21:20.984Z,20.40
2018-12-16T11:22:24.662Z,20.32
2018-12-16T11:23:28.586Z,18.77
2018-12-16T11:24:32.268Z,21.05
2018-12-16T11:25:37.729Z,19.92
2018-12-16T11:26:41.357Z,20.57
2018-12-16T11:27:45.058Z,19.82
2018-12-16T11:28:48.692Z,20.45
2018-12-16T11:29:52.325Z,20.27
2018-12-16T11:30:56.085Z,19.37
2018-12-16T11:31:59.789Z,21.23
2018-12-16T11:33:03.529Z,20.77
2018-12-16T11:34:07.344Z,20.37
2018-12-16T11:35:11.026Z,19.30
2018-12-16T11:36:14.643Z,19.37
2018-12-16T11:37:18.258Z,20.75
2018-12-16T11:38:21.909Z,21.33
2018-12-16T11:39:25.706Z,19.98
2018-12-16T11:40:29.382Z,21.95
2018-12-16T11:41:33.012Z,20.50
2018-12-16T11:42:36.682Z,20.95
2018-12-16T11:43:40.373Z,21.40
2018-12-16T11:44:44.068Z,19.15
2018-12-16T11:45:47.759Z,20.52
2018-12-16T11:46:51.433Z,20.88
2018-12-16T11:47:55.205Z,20.90
2018-12-16T11:48:58.829Z,20.70
2018-12-16T11:50:02.466Z,19.80
2018-12-16T11:51:06.181Z,19.25
2018-12-16T11:52:09.810Z,19.15
2018-12-16T11:53:13.503Z,21.17
2018-12-16T11:54:17.188Z,19.57
2018-12-16T11:55:20.834Z,20.35
2018-12-16T11:56:24.459Z,20.48
2018-12-16T11:57:28.080Z,19.90
2018-12-16T11:58:31.709Z,20.68
2018-12-16T11:59:35.356Z,20.32
2018-12-16T12:00:39.070Z,20.90
2018-12-16T12:01:42.773Z,20.62
2018-12-16T12:02:46.401Z,20.57
2018-12-16T12:03:50.035Z,21.17
2018-12-16T12:04:53.729Z,21.48
2018-12-16T12:05:57.421Z,20.48
2018-12-16T12:07:01.050Z,20.92
2018-12-16T12:08:04.805Z,21.05
2018-12-16T12:09:08.488Z,20.55
2018-12-16T12:10:12.241Z,21.30
2018-12-16T12:11:15.946Z,20.55
2018-12-16T12:12:19.693Z,20.95
2018-12-16T12:13:23.308Z,19.57
2018-12-16T12:14:26.937Z,20.37
2018-12-16T12:15:30.633Z,20.32
2018-12-16T12:16:34.361Z,19.92
2018-12-16T12:17:37.977Z,19.90
2018-12-16T12:18:41.624Z,19.95
2018-12-16T12:19:45.293Z,19.75
2018-12-16T12:20:48.916Z,21.27
2018-12-16T12:21:52.605Z,20.80
2018-12-16T12:22:56.299Z,19.80
2018-12-16T12:23:59.993Z,19.35
2018-12-16T12:25:04.161Z,20.85
2018-12-16T12:26:07.788Z,21.20
2018-12-16T12:27:11.471Z,21.90
2018-12-16T12:28:15.471Z,20.45
2018-12-16T12:29:19.129Z,21.05
2018-12-16T12:30:22.875Z,20.30
2018-12-16T12:31:26.777Z,20.65
2018-12-16T12:32:30.606Z,21.68
2018-12-16T12:33:34.262Z,21.65
2018-12-16T12:34:37.924Z,22.45
2018-12-16T12:35:41.532Z,21.30
2018-12-16T12:36:45.282Z,21.10
2018-12-16T12:37:48.896Z,21.42
2018-12-16T12:38:52.576Z,20.30
2018-12-16T12:39:56.194Z,21.42
2018-12-16T12:40:59.873Z,20.52
2018-12-16T12:42:03.560Z,21.12
2018-12-16T12:43:07.272Z,21.20
2018-12-16T12:44:10.957Z,22.02
2018-12-16T12:45:14.697Z,20.92
2018-12-16T12:46:18.349Z,19.65
2018-12-16T12:47:22.145Z,21.20
2018-12-16T12:48:25.857Z,21.87
2018-12-16T12:49:29.525Z,21.68
2018-12-16T12:50:33.169Z,20.55
2018-12-16T12:51:36.879Z,22.02
2018-12-16T12:52:40.560Z,21.23
2018-12-16T12:53:44.173Z,20.50
2018-12-16T12:54:47.862Z,20.62
2018-12-16T12:55:51.500Z,22.17
2018-12-16T12:56:55.254Z,21.42
2018-12-16T12:57:58.945Z,20.97
2018-12-16T12:59:02.618Z,21.33
2018-12-16T13:00:10.450Z,22.25
2018-12-16T13:01:14.161Z,21.70
2018-12-16T13:02:17.940Z,21.90
2018-12-16T13:03:21.516Z,21.15
2018-12-16T13:04:25.191Z,22.52
2018-12-16T13:05:28.814Z,21.55
2018-12-16T13:06:32.432Z,22.37
2018-12-16T13:07:36.081Z,21.75
2018-12-16T13:08:39.717Z,22.37
2018-12-16T13:09:43.365Z,21.00
2018-12-16T13:10:46.986Z,21.80
2018-12-16T13:11:50.663Z,20.52
2018-12-16T13:12:54.306Z,22.60
2018-12-16T13:13:57.981Z,22.62
2018-12-16T13:15:01.781Z,21.60
2018-12-16T13:16:05.545Z,21.65
2018-12-16T13:17:09.361Z,21.85
2018-12-16T13:18:12.986Z,22.65
2018-12-16T13:19:16.819Z,21.48
2018-12-16T13:20:20.466Z,21.97
2018-12-16T13:21:24.153Z,22.42
2018-12-16T13:22:27.923Z,22.02
2018-12-16T13:23:31.528Z,21.97
2018-12-16T13:24:35.286Z,22.50
2018-12-16T13:25:50.408Z,22.62
2018-12-16T13:26:54.053Z,21.73
2018-12-16T13:27:57.656Z,22.80
2018-12-16T13:29:01.333Z,21.33
2018-12-16T13:30:05.891Z,22.42
2018-12-16T13:31:09.674Z,21.75
2018-12-16T13:32:13.301Z,23.20
2018-12-16T13:33:16.922Z,23.55
2018-12-16T13:34:20.620Z,22.17
2018-12-16T13:35:24.294Z,22.65
2018-12-16T13:36:27.876Z,22.93
2018-12-16T13:37:31.558Z,22.40
2018-12-16T13:38:35.338Z,21.25
2018-12-16T13:39:39.013Z,21.60
2018-12-16T13:40:42.859Z,21.73
2018-12-16T13:41:46.657Z,23.50